Time;durP1;ratioP1;P1;durP2;ratioP2;P2;SDS_P1;SDS_P2;PMS_P1;PMS_P2;Temp;Humidity;BMP_temperature;BMP_pressure;BME280_temperature;BME280_humidity;BME280_pressure;Samples;Min_cycle;Max_cycle;Signal;HPM_P1;HPM_P2
2023/09/11 00:01:33;;;;;;;;;;;22.40;94.20;;;;;;5009904;28;19963;-73
2023/09/11 00:03:59;;;;;;;;;;;22.30;94.20;;;;;;5010357;28;19913;-73
2023/09/11 00:06:25;;;;;;;;;;;22.30;94.30;;;;;;5009874;28;19914;-73
2023/09/11 00:08:54;;;;;;;;;;;22.30;94.30;;;;;;5008795;28;19913;-73
2023/09/11 00:11:19;;;;;;;;;;;22.30;94.30;;;;;;5009939;28;19924;-73
2023/09/11 00:13:45;;;;;;;;;;;22.20;94.30;;;;;;5008411;28;20375;-73
2023/09/11 00:16:10;;;;;;;;;;;22.20;94.40;;;;;;5010207;28;20418;-73
2023/09/11 00:18:37;;;;;;;;;;;22.20;94.40;;;;;;5009880;28;19910;-73
2023/09/11 00:21:03;;;;;;;;;;;22.20;94.40;;;;;;5009605;28;19920;-73
2023/09/11 00:23:28;;;;;;;;;;;22.20;94.50;;;;;;5009532;28;19909;-73
2023/09/11 00:25:54;;;;;;;;;;;22.10;94.60;;;;;;5010087;28;20278;-73
2023/09/11 00:28:19;;;;;;;;;;;22.10;94.60;;;;;;5003836;28;19914;-73
2023/09/11 00:30:45;;;;;;;;;;;22.10;94.50;;;;;;5008477;28;20393;-73
2023/09/11 00:33:11;;;;;;;;;;;22.10;94.40;;;;;;5008676;28;20386;-73
2023/09/11 00:35:36;;;;;;;;;;;22.10;94.80;;;;;;5009451;28;19960;-73
2023/09/11 00:38:02;;;;;;;;;;;22.10;94.70;;;;;;5009406;28;19914;-73
2023/09/11 00:40:27;;;;;;;;;;;22.00;94.80;;;;;;5009324;28;19913;-73
2023/09/11 00:42:53;;;;;;;;;;;22.00;94.80;;;;;;5009304;28;19910;-73
2023/09/11 00:45:19;;;;;;;;;;;21.90;94.80;;;;;;5008205;28;19913;-73
2023/09/11 00:47:45;;;;;;;;;;;21.90;94.80;;;;;;5009139;28;19918;-73
2023/09/11 00:50:11;;;;;;;;;;;21.90;94.90;;;;;;5009405;28;19913;-73
2023/09/11 00:52:37;;;;;;;;;;;21.90;94.80;;;;;;5008360;28;19940;-73
2023/09/11 00:55:03;;;;;;;;;;;21.90;94.90;;;;;;5009120;28;20103;-73
2023/09/11 00:57:29;;;;;;;;;;;21.80;94.90;;;;;;5008919;28;19909;-73
2023/09/11 00:59:54;;;;;;;;;;;21.90;94.90;;;;;;5009200;28;20408;-73
2023/09/11 01:02:21;;;;;;;;;;;21.80;95.00;;;;;;5009005;28;19913;-73
2023/09/11 01:04:46;;;;;;;;;;;21.80;95.10;;;;;;5008934;28;19920;-73
2023/09/11 01:07:13;;;;;;;;;;;21.80;95.10;;;;;;5008863;28;19913;-73
2023/09/11 01:09:39;;;;;;;;;;;21.80;95.10;;;;;;5006269;28;19909;-73
2023/09/11 01:12:05;;;;;;;;;;;21.70;95.20;;;;;;5008712;28;20360;-73
2023/09/11 01:14:31;;;;;;;;;;;21.70;95.20;;;;;;5008730;28;19910;-73
2023/09/11 01:17:01;;;;;;;;;;;21.70;95.20;;;;;;5008611;28;20000;-73
2023/09/11 01:19:47;;;;;;;;;;;21.70;95.10;;;;;;5008169;28;19913;-73
2023/09/11 01:22:13;;;;;;;;;;;21.60;95.00;;;;;;5008197;28;19914;-73
2023/09/11 01:24:38;;;;;;;;;;;21.70;95.10;;;;;;5008206;28;20401;-73
2023/09/11 01:27:22;;;;;;;;;;;21.70;95.20;;;;;;5008833;28;20004;-73
2023/09/11 01:29:49;;;;;;;;;;;21.60;95.20;;;;;;5008249;28;19913;-73
2023/09/11 01:32:17;;;;;;;;;;;21.60;95.40;;;;;;5007979;28;20614;-73
2023/09/11 01:34:43;;;;;;;;;;;21.60;95.40;;;;;;5008430;28;19920;-73
2023/09/11 01:37:08;;;;;;;;;;;21.60;95.60;;;;;;5006376;28;19909;-73
2023/09/11 01:39:34;;;;;;;;;;;21.50;95.30;;;;;;5008029;28;19909;-73
2023/09/11 01:42:03;;;;;;;;;;;21.50;95.20;;;;;;5006921;28;19914;-73
2023/09/11 01:44:34;;;;;;;;;;;21.50;95.20;;;;;;5006597;28;19913;-73
2023/09/11 01:47:00;;;;;;;;;;;21.50;95.30;;;;;;5008538;28;20599;-73
2023/09/11 01:49:26;;;;;;;;;;;21.50;95.40;;;;;;5008444;28;19917;-73
2023/09/11 01:51:52;;;;;;;;;;;21.50;95.40;;;;;;5001330;28;19956;-73
2023/09/11 01:54:18;;;;;;;;;;;21.40;95.50;;;;;;5008350;28;19910;-73
2023/09/11 01:56:43;;;;;;;;;;;21.40;95.50;;;;;;5007839;28;20576;-73
2023/09/11 01:59:09;;;;;;;;;;;21.40;95.50;;;;;;5008154;28;20027;-73
2023/09/11 02:01:34;;;;;;;;;;;21.40;95.50;;;;;;5007500;28;19967;-73
2023/09/11 02:04:00;;;;;;;;;;;21.40;95.60;;;;;;5008005;28;19919;-73
2023/09/11 02:06:25;;;;;;;;;;;21.40;95.60;;;;;;5008114;28;19916;-73
2023/09/11 02:08:51;;;;;;;;;;;21.40;95.60;;;;;;5006482;28;19913;-73
2023/09/11 02:11:17;;;;;;;;;;;21.40;95.80;;;;;;5007750;28;20325;-73
2023/09/11 02:13:42;;;;;;;;;;;21.30;95.70;;;;;;5007511;28;20416;-73
2023/09/11 02:16:08;;;;;;;;;;;21.30;95.60;;;;;;5008044;28;20005;-73
2023/09/11 02:18:33;;;;;;;;;;;21.30;95.60;;;;;;5006367;28;20298;-73
2023/09/11 02:20:58;;;;;;;;;;;21.30;95.60;;;;;;5007624;28;19913;-73
2023/09/11 02:23:24;;;;;;;;;;;21.30;95.80;;;;;;5008028;28;19968;-73
2023/09/11 02:25:51;;;;;;;;;;;21.20;95.90;;;;;;5007754;28;20429;-73
2023/09/11 02:28:16;;;;;;;;;;;21.20;95.80;;;;;;5003602;28;19913;-73
2023/09/11 02:30:42;;;;;;;;;;;21.20;95.90;;;;;;5007176;28;19920;-73
2023/09/11 02:33:07;;;;;;;;;;;21.20;95.80;;;;;;5009884;28;20527;-73
2023/09/11 02:35:33;;;;;;;;;;;21.20;95.70;;;;;;5011027;28;20444;-73
2023/09/11 02:37:58;;;;;;;;;;;21.20;95.80;;;;;;5011143;28;20390;-73
2023/09/11 02:40:24;;;;;;;;;;;21.20;95.70;;;;;;5011583;28;19984;-73
2023/09/11 02:42:49;;;;;;;;;;;21.20;95.80;;;;;;5010487;28;19914;-73
2023/09/11 02:45:15;;;;;;;;;;;21.10;95.80;;;;;;5011149;28;19913;-73
2023/09/11 02:47:41;;;;;;;;;;;21.10;95.90;;;;;;5009770;28;20417;-73
2023/09/11 02:50:06;;;;;;;;;;;21.10;95.90;;;;;;5011851;28;19918;-73
2023/09/11 02:52:32;;;;;;;;;;;21.10;95.90;;;;;;5009506;28;19917;-73
2023/09/11 02:54:57;;;;;;;;;;;21.10;96.00;;;;;;5011724;28;19964;-73
2023/09/11 02:57:23;;;;;;;;;;;21.10;95.90;;;;;;5011779;28;20624;-73
2023/09/11 02:59:48;;;;;;;;;;;21.10;96.00;;;;;;5010979;28;19914;-73
2023/09/11 03:02:14;;;;;;;;;;;21.00;96.00;;;;;;5011087;28;20658;-73
2023/09/11 03:04:39;;;;;;;;;;;21.00;95.90;;;;;;5011006;28;20329;-73
2023/09/11 03:07:05;;;;;;;;;;;21.00;95.80;;;;;;5010969;28;19914;-73
2023/09/11 03:09:30;;;;;;;;;;;21.00;95.60;;;;;;5011081;28;19910;-73
2023/09/11 03:11:56;;;;;;;;;;;21.00;95.80;;;;;;5009602;28;19917;-72
2023/09/11 03:14:21;;;;;;;;;;;21.00;95.80;;;;;;5011156;28;19914;-73
2023/09/11 03:16:47;;;;;;;;;;;20.90;95.90;;;;;;5009064;28;20308;-73
2023/09/11 03:19:12;;;;;;;;;;;21.00;96.10;;;;;;5011071;28;19917;-73
2023/09/11 03:21:38;;;;;;;;;;;20.90;96.10;;;;;;5010527;28;19920;-73
2023/09/11 03:24:04;;;;;;;;;;;20.90;96.20;;;;;;5010821;28;19960;-73
2023/09/11 03:26:29;;;;;;;;;;;20.90;96.10;;;;;;5010804;28;20032;-73
2023/09/11 03:28:55;;;;;;;;;;;20.90;96.20;;;;;;5010932;28;20427;-73
2023/09/11 03:31:21;;;;;;;;;;;20.90;96.00;;;;;;5009087;28;20708;-73
2023/09/11 03:33:46;;;;;;;;;;;20.90;96.10;;;;;;5010586;28;19913;-73
2023/09/11 03:36:16;;;;;;;;;;;20.80;96.10;;;;;;5010841;28;19921;-73
2023/09/11 03:38:41;;;;;;;;;;;20.80;96.10;;;;;;5009901;28;19914;-73
2023/09/11 03:41:07;;;;;;;;;;;20.80;96.20;;;;;;5010517;28;19917;-73
2023/09/11 03:43:32;;;;;;;;;;;20.80;96.10;;;;;;5009955;28;20301;-73
2023/09/11 03:45:58;;;;;;;;;;;20.80;96.20;;;;;;5009330;28;20422;-73
2023/09/11 03:48:24;;;;;;;;;;;20.80;96.10;;;;;;5010748;28;20317;-73
2023/09/11 03:50:49;;;;;;;;;;;20.80;96.30;;;;;;5008717;28;19914;-73
2023/09/11 03:53:14;;;;;;;;;;;20.80;96.30;;;;;;5010392;28;19918;-72
2023/09/11 03:55:40;;;;;;;;;;;20.70;96.20;;;;;;5010063;28;20290;-73
2023/09/11 03:58:05;;;;;;;;;;;20.70;96.30;;;;;;5010367;28;19910;-73
2023/09/11 04:00:31;;;;;;;;;;;20.70;96.40;;;;;;5010082;28;19913;-73
2023/09/11 04:02:56;;;;;;;;;;;20.70;96.30;;;;;;5010354;28;20351;-72
2023/09/11 04:05:22;;;;;;;;;;;20.60;96.30;;;;;;5010532;28;19917;-72
2023/09/11 04:07:47;;;;;;;;;;;20.60;96.20;;;;;;5008246;28;21198;-73
2023/09/11 04:10:13;;;;;;;;;;;20.70;96.20;;;;;;5010041;28;20060;-72
2023/09/11 04:12:39;;;;;;;;;;;20.60;96.40;;;;;;5007873;28;19918;-72
2023/09/11 04:15:05;;;;;;;;;;;20.60;96.30;;;;;;5010164;28;20013;-72
2023/09/11 04:17:30;;;;;;;;;;;20.60;96.40;;;;;;5009615;28;19913;-72
2023/09/11 04:19:55;;;;;;;;;;;20.60;96.40;;;;;;5010123;28;20487;-73
2023/09/11 04:22:21;;;;;;;;;;;20.50;96.30;;;;;;5007922;28;19914;-73
2023/09/11 04:24:47;;;;;;;;;;;20.60;96.40;;;;;;5008933;28;19913;-73
2023/09/11 04:27:12;;;;;;;;;;;20.60;96.50;;;;;;5009789;28;19943;-73
2023/09/11 04:29:38;;;;;;;;;;;20.60;96.50;;;;;;5009381;28;19916;-73
2023/09/11 04:32:04;;;;;;;;;;;20.50;96.40;;;;;;5009438;28;19918;-73
2023/09/11 04:34:29;;;;;;;;;;;20.50;96.50;;;;;;5009468;28;19920;-73
2023/09/11 04:36:55;;;;;;;;;;;20.50;96.40;;;;;;5010033;28;19914;-72
2023/09/11 04:39:23;;;;;;;;;;;20.50;96.30;;;;;;5008743;28;19916;-73
2023/09/11 04:41:49;;;;;;;;;;;20.50;96.40;;;;;;5008842;28;19924;-73
2023/09/11 04:44:14;;;;;;;;;;;20.50;96.40;;;;;;5009227;28;19914;-73
2023/09/11 04:46:40;;;;;;;;;;;20.50;96.50;;;;;;5006308;28;19936;-73
2023/09/11 04:49:05;;;;;;;;;;;20.40;96.40;;;;;;5008778;28;19921;-73
2023/09/11 04:51:31;;;;;;;;;;;20.40;96.50;;;;;;5008736;28;20088;-73
2023/09/11 04:53:56;;;;;;;;;;;20.40;96.50;;;;;;5007357;28;19914;-73
2023/09/11 04:56:22;;;;;;;;;;;20.40;96.50;;;;;;5009261;28;19936;-72
2023/09/11 04:58:47;;;;;;;;;;;20.40;96.50;;;;;;5008600;28;19914;-73
2023/09/11 05:01:13;;;;;;;;;;;20.40;96.50;;;;;;5007561;28;19924;-73
2023/09/11 05:03:39;;;;;;;;;;;20.40;96.50;;;;;;5008830;28;19920;-73
2023/09/11 05:06:05;;;;;;;;;;;20.40;96.50;;;;;;5009056;28;19914;-73
2023/09/11 05:08:30;;;;;;;;;;;20.40;96.50;;;;;;5008384;28;20278;-73
2023/09/11 05:10:56;;;;;;;;;;;20.30;96.50;;;;;;5008781;28;20110;-73
2023/09/11 05:13:21;;;;;;;;;;;20.30;96.50;;;;;;5008612;28;19917;-73
2023/09/11 05:15:48;;;;;;;;;;;20.30;96.60;;;;;;5008674;28;19969;-73
2023/09/11 05:18:14;;;;;;;;;;;20.30;96.50;;;;;;5008844;28;19918;-73
2023/09/11 05:20:40;;;;;;;;;;;20.30;96.50;;;;;;5008273;28;19959;-73
2023/09/11 05:23:05;;;;;;;;;;;20.30;96.50;;;;;;5008252;28;19952;-72
2023/09/11 05:25:31;;;;;;;;;;;20.30;96.50;;;;;;5008339;28;19909;-73
2023/09/11 05:27:56;;;;;;;;;;;20.30;96.50;;;;;;5001351;28;19937;-73
2023/09/11 05:30:22;;;;;;;;;;;20.20;96.50;;;;;;5008534;28;20341;-72
2023/09/11 05:32:51;;;;;;;;;;;20.30;96.50;;;;;;5008243;28;19917;-73
2023/09/11 05:35:17;;;;;;;;;;;20.20;96.60;;;;;;5008687;28;19921;-73
2023/09/11 05:37:43;;;;;;;;;;;20.20;96.50;;;;;;5007174;28;19949;-72
2023/09/11 05:40:09;;;;;;;;;;;20.20;96.40;;;;;;5008517;28;19941;-72
2023/09/11 05:42:34;;;;;;;;;;;20.20;96.50;;;;;;5007695;28;19979;-73
2023/09/11 05:45:00;;;;;;;;;;;20.20;96.60;;;;;;5007175;28;20633;-73
2023/09/11 05:47:25;;;;;;;;;;;20.20;96.50;;;;;;5008612;28;19937;-73
2023/09/11 05:49:51;;;;;;;;;;;20.20;96.30;;;;;;5008346;28;19917;-73
2023/09/11 05:52:16;;;;;;;;;;;20.20;96.50;;;;;;5006779;28;19917;-73
2023/09/11 05:54:41;;;;;;;;;;;20.20;96.60;;;;;;5007807;28;20370;-73
2023/09/11 05:57:07;;;;;;;;;;;20.20;96.40;;;;;;5008257;28;19917;-73
2023/09/11 05:59:33;;;;;;;;;;;20.20;96.50;;;;;;5007825;28;19917;-73
2023/09/11 06:01:58;;;;;;;;;;;20.20;96.50;;;;;;5006640;28;19914;-73
2023/09/11 06:04:24;;;;;;;;;;;20.20;96.30;;;;;;5008305;28;19914;-73
2023/09/11 06:06:49;;;;;;;;;;;20.20;96.40;;;;;;5007739;28;20406;-73
2023/09/11 06:09:15;;;;;;;;;;;20.20;96.20;;;;;;5008095;28;19914;-73
2023/09/11 06:11:40;;;;;;;;;;;20.20;96.10;;;;;;5007440;28;19924;-73
2023/09/11 06:14:09;;;;;;;;;;;20.20;96.10;;;;;;5008026;28;19909;-73
2023/09/11 06:16:34;;;;;;;;;;;20.20;96.10;;;;;;5007885;28;20019;-73
2023/09/11 06:19:00;;;;;;;;;;;20.20;96.20;;;;;;5008285;28;19952;-73
2023/09/11 06:21:26;;;;;;;;;;;20.20;96.20;;;;;;5008009;28;19909;-73
2023/09/11 06:23:52;;;;;;;;;;;20.20;96.10;;;;;;5007666;28;19914;-73
2023/09/11 06:26:17;;;;;;;;;;;20.20;96.00;;;;;;5007913;28;19913;-73
2023/09/11 06:28:43;;;;;;;;;;;20.20;96.00;;;;;;5004410;28;19920;-73
2023/09/11 06:31:08;;;;;;;;;;;20.20;96.00;;;;;;5006241;28;20363;-73
2023/09/11 06:33:34;;;;;;;;;;;20.20;96.00;;;;;;5007635;28;19945;-73
2023/09/11 06:36:00;;;;;;;;;;;20.20;96.00;;;;;;5007965;28;19913;-73
2023/09/11 06:38:25;;;;;;;;;;;20.20;96.00;;;;;;5007524;28;19914;-73
2023/09/11 06:40:51;;;;;;;;;;;20.20;95.90;;;;;;5007398;28;19918;-73
2023/09/11 06:43:16;;;;;;;;;;;20.20;95.90;;;;;;5007521;28;19917;-73
2023/09/11 06:45:42;;;;;;;;;;;20.20;96.00;;;;;;5007502;28;19921;-73
2023/09/11 06:48:10;;;;;;;;;;;20.20;95.70;;;;;;5007560;28;20441;-73
2023/09/11 06:50:35;;;;;;;;;;;20.20;95.80;;;;;;5007149;28;19914;-73
2023/09/11 06:53:01;;;;;;;;;;;20.20;95.70;;;;;;5006325;28;19924;-73
2023/09/11 06:55:27;;;;;;;;;;;20.20;95.70;;;;;;5007686;28;19913;-73
2023/09/11 06:57:56;;;;;;;;;;;20.30;95.60;;;;;;5007104;28;19913;-73
2023/09/11 07:00:22;;;;;;;;;;;20.20;95.60;;;;;;5007565;28;19913;-73
2023/09/11 07:02:51;;;;;;;;;;;20.30;95.60;;;;;;5006993;28;19960;-73
2023/09/11 07:05:17;;;;;;;;;;;20.30;95.70;;;;;;5005160;28;20333;-73
2023/09/11 07:07:42;;;;;;;;;;;20.30;95.50;;;;;;5003570;28;19957;-73
2023/09/11 07:10:11;;;;;;;;;;;20.30;95.50;;;;;;5006281;28;20311;-73
2023/09/11 07:12:37;;;;;;;;;;;20.30;95.50;;;;;;5006739;28;19960;-73
2023/09/11 07:15:03;;;;;;;;;;;20.30;95.50;;;;;;5007678;28;19914;-73
2023/09/11 07:17:29;;;;;;;;;;;20.40;95.40;;;;;;5008444;28;19915;-73
2023/09/11 07:19:54;;;;;;;;;;;20.40;95.40;;;;;;5001295;28;19936;-73
2023/09/11 07:22:20;;;;;;;;;;;20.40;95.40;;;;;;5010671;28;19914;-73
2023/09/11 07:24:45;;;;;;;;;;;20.40;95.40;;;;;;5010451;28;19918;-72
2023/09/11 07:27:11;;;;;;;;;;;20.50;95.30;;;;;;5009927;28;20434;-72
2023/09/11 07:29:37;;;;;;;;;;;20.50;95.30;;;;;;5009108;28;20010;-72
2023/09/11 07:32:02;;;;;;;;;;;20.50;95.20;;;;;;5002269;28;20256;-72
2023/09/11 07:34:28;;;;;;;;;;;20.50;95.20;;;;;;5010795;28;19917;-72
2023/09/11 07:36:53;;;;;;;;;;;20.50;95.20;;;;;;5008843;28;19917;-72
2023/09/11 07:39:19;;;;;;;;;;;20.60;95.20;;;;;;5010041;28;19918;-72
2023/09/11 07:41:45;;;;;;;;;;;20.60;95.10;;;;;;5009734;28;20643;-72
2023/09/11 07:44:10;;;;;;;;;;;20.60;95.00;;;;;;5010341;28;20016;-72
2023/09/11 07:46:36;;;;;;;;;;;20.60;95.00;;;;;;5010297;28;19917;-72
2023/09/11 07:49:01;;;;;;;;;;;20.60;94.90;;;;;;5010413;28;19956;-72
2023/09/11 07:51:27;;;;;;;;;;;20.70;94.90;;;;;;5010010;28;19910;-72
2023/09/11 07:53:52;;;;;;;;;;;20.70;94.80;;;;;;5009824;28;20381;-72
2023/09/11 07:56:18;;;;;;;;;;;20.80;94.80;;;;;;5010309;28;20369;-72
2023/09/11 07:58:43;;;;;;;;;;;20.80;94.70;;;;;;5009918;28;20269;-72
2023/09/11 08:01:09;;;;;;;;;;;20.80;94.70;;;;;;5009885;28;19920;-72
2023/09/11 08:03:34;;;;;;;;;;;20.90;94.70;;;;;;5009414;28;19913;-72
2023/09/11 08:06:00;;;;;;;;;;;20.90;94.60;;;;;;5009571;28;19918;-72
2023/09/11 08:08:26;;;;;;;;;;;21.00;94.60;;;;;;5009120;28;20359;-72
2023/09/11 08:10:52;;;;;;;;;;;21.00;94.50;;;;;;5007966;28;20011;-73
2023/09/11 08:13:18;;;;;;;;;;;21.00;94.50;;;;;;5009748;28;19917;-73
2023/09/11 08:15:43;;;;;;;;;;;21.00;94.50;;;;;;5008370;28;19914;-72
2023/09/11 08:18:09;;;;;;;;;;;21.10;94.50;;;;;;5009225;28;20454;-72
2023/09/11 08:20:35;;;;;;;;;;;21.10;94.40;;;;;;5009014;28;19921;-73
2023/09/11 08:23:01;;;;;;;;;;;21.20;94.40;;;;;;5009083;28;19914;-72
2023/09/11 08:25:27;;;;;;;;;;;21.20;94.40;;;;;;5009925;28;19913;-72
2023/09/11 08:27:53;;;;;;;;;;;21.20;94.30;;;;;;5009323;28;19918;-72
2023/09/11 08:30:18;;;;;;;;;;;21.30;94.30;;;;;;4998406;28;19967;-72
2023/09/11 08:32:44;;;;;;;;;;;21.30;94.30;;;;;;5007837;28;19957;-72
2023/09/11 08:35:10;;;;;;;;;;;21.40;94.30;;;;;;5009604;28;19920;-72
2023/09/11 08:37:35;;;;;;;;;;;21.40;94.20;;;;;;5008946;28;19913;-72
2023/09/11 08:40:01;;;;;;;;;;;21.40;94.20;;;;;;5009655;28;19940;-72
2023/09/11 08:42:26;;;;;;;;;;;21.50;94.30;;;;;;5008063;28;19967;-72
2023/09/11 08:44:52;;;;;;;;;;;21.60;94.20;;;;;;5009210;28;19959;-72
2023/09/11 08:47:19;;;;;;;;;;;21.60;94.10;;;;;;5009577;28;19921;-72
2023/09/11 08:49:49;;;;;;;;;;;21.60;94.10;;;;;;5009282;28;19982;-72
2023/09/11 08:52:15;;;;;;;;;;;21.70;93.90;;;;;;5009141;28;19963;-72
2023/09/11 08:54:41;;;;;;;;;;;21.70;93.90;;;;;;5009069;28;19921;-72
2023/09/11 08:57:09;;;;;;;;;;;21.80;94.00;;;;;;5009481;28;19913;-72
2023/09/11 08:59:36;;;;;;;;;;;21.80;93.90;;;;;;5007732;28;19913;-72
2023/09/11 09:02:02;;;;;;;;;;;21.80;93.80;;;;;;5009105;28;19919;-72
2023/09/11 09:04:29;;;;;;;;;;;21.90;93.70;;;;;;5008047;28;19909;-72
2023/09/11 09:06:54;;;;;;;;;;;21.90;93.70;;;;;;5008617;28;19916;-72
2023/09/11 09:09:20;;;;;;;;;;;21.90;93.70;;;;;;5008885;28;19913;-72
2023/09/11 09:11:48;;;;;;;;;;;22.00;93.70;;;;;;5008307;28;19917;-72
2023/09/11 09:14:18;;;;;;;;;;;22.00;93.70;;;;;;5009057;28;20384;-72
2023/09/11 09:16:44;;;;;;;;;;;22.10;93.70;;;;;;5007578;28;20003;-72
2023/09/11 09:19:10;;;;;;;;;;;22.10;93.50;;;;;;5009253;28;19928;-72
2023/09/11 09:21:35;;;;;;;;;;;22.20;93.40;;;;;;5008180;28;19944;-72
2023/09/11 09:24:17;;;;;;;;;;;22.20;93.50;;;;;;5007254;28;19913;-72
2023/09/11 09:26:59;;;;;;;;;;;22.20;93.60;;;;;;5007021;28;20020;-72
2023/09/11 09:29:24;;;;;;;;;;;22.30;93.50;;;;;;5007159;28;20453;-72
2023/09/11 09:31:51;;;;;;;;;;;22.30;93.40;;;;;;5006827;28;19918;-73
2023/09/11 09:34:16;;;;;;;;;;;22.30;93.30;;;;;;5008466;28;19913;-73
2023/09/11 09:36:49;;;;;;;;;;;22.40;93.40;;;;;;5008338;28;20337;-73
2023/09/11 09:39:14;;;;;;;;;;;22.40;93.40;;;;;;5008307;28;19910;-73
2023/09/11 09:41:50;;;;;;;;;;;22.50;93.30;;;;;;5007725;28;20346;-73
2023/09/11 09:44:27;;;;;;;;;;;22.50;93.30;;;;;;5008483;28;19914;-73
2023/09/11 09:46:52;;;;;;;;;;;22.50;93.30;;;;;;5008410;28;19959;-72
2023/09/11 09:49:20;;;;;;;;;;;22.60;93.20;;;;;;5008509;28;19953;-72
2023/09/11 09:51:46;;;;;;;;;;;22.60;93.10;;;;;;5007889;28;20012;-72
2023/09/11 09:54:11;;;;;;;;;;;22.70;93.20;;;;;;5008370;28;20005;-73
2023/09/11 09:56:37;;;;;;;;;;;22.70;93.00;;;;;;5008208;28;19967;-73
2023/09/11 09:59:02;;;;;;;;;;;22.70;93.00;;;;;;5008249;28;19917;-72
2023/09/11 10:01:28;;;;;;;;;;;22.80;93.00;;;;;;5008178;28;19913;-73
2023/09/11 10:03:53;;;;;;;;;;;22.80;92.90;;;;;;5008006;28;19917;-72
2023/09/11 10:06:21;;;;;;;;;;;22.90;93.00;;;;;;5008464;28;19917;-72
2023/09/11 10:08:47;;;;;;;;;;;22.90;92.90;;;;;;5006165;28;19976;-72
2023/09/11 10:11:27;;;;;;;;;;;22.90;92.80;;;;;;5006610;28;19917;-72
2023/09/11 10:13:54;;;;;;;;;;;23.00;92.70;;;;;;5007590;28;19924;-72
2023/09/11 10:16:19;;;;;;;;;;;23.10;92.70;;;;;;5006729;28;19921;-72
2023/09/11 10:18:45;;;;;;;;;;;23.10;92.60;;;;;;5007806;28;19921;-72
2023/09/11 10:21:12;;;;;;;;;;;23.20;92.50;;;;;;5006748;28;19914;-72
2023/09/11 10:23:37;;;;;;;;;;;23.20;92.40;;;;;;5007867;28;20425;-72
2023/09/11 10:26:07;;;;;;;;;;;23.20;92.40;;;;;;5008449;28;19913;-72
2023/09/11 10:28:34;;;;;;;;;;;23.30;92.40;;;;;;5005395;28;19967;-72
2023/09/11 10:31:12;;;;;;;;;;;23.40;92.30;;;;;;5007809;28;19913;-72
2023/09/11 10:33:39;;;;;;;;;;;23.40;92.30;;;;;;5006288;28;19964;-72
2023/09/11 10:36:08;;;;;;;;;;;23.50;92.40;;;;;;5008239;28;19913;-72
2023/09/11 10:38:34;;;;;;;;;;;23.60;92.40;;;;;;5007386;28;19913;-72
2023/09/11 10:41:00;;;;;;;;;;;23.60;92.80;;;;;;5007810;28;19914;-72
2023/09/11 10:43:26;;;;;;;;;;;23.70;92.50;;;;;;5007926;28;19914;-72
2023/09/11 10:45:52;;;;;;;;;;;23.80;92.60;;;;;;5007896;28;19920;-72
2023/09/11 10:48:31;;;;;;;;;;;23.90;92.60;;;;;;5007867;28;20413;-72
2023/09/11 10:50:57;;;;;;;;;;;23.90;92.60;;;;;;5007705;28;19913;-72
2023/09/11 10:53:30;;;;;;;;;;;24.00;92.70;;;;;;5009239;28;20401;-72
2023/09/11 10:55:59;;;;;;;;;;;24.10;92.70;;;;;;5011646;28;20000;-72
2023/09/11 10:58:25;;;;;;;;;;;24.20;92.70;;;;;;5011929;28;19960;-72
2023/09/11 11:00:52;;;;;;;;;;;24.30;92.60;;;;;;5009634;28;19920;-72
2023/09/11 11:03:17;;;;;;;;;;;24.40;92.70;;;;;;5011546;28;19910;-72
2023/09/11 11:05:43;;;;;;;;;;;24.50;92.90;;;;;;5010996;28;19913;-72
2023/09/11 11:08:10;;;;;;;;;;;24.50;92.80;;;;;;5004950;28;20013;-72
2023/09/11 11:10:39;;;;;;;;;;;24.60;92.90;;;;;;5011207;28;19920;-72
2023/09/11 11:13:06;;;;;;;;;;;24.80;92.90;;;;;;5011182;28;19926;-72
2023/09/11 11:15:32;;;;;;;;;;;24.90;92.90;;;;;;5011614;28;19913;-72
2023/09/11 11:18:09;;;;;;;;;;;25.00;92.60;;;;;;5011070;28;19914;-72
2023/09/11 11:20:36;;;;;;;;;;;25.00;92.60;;;;;;5011271;28;20380;-72
2023/09/11 11:23:08;;;;;;;;;;;25.10;92.90;;;;;;5003503;28;19916;-72
2023/09/11 11:25:34;;;;;;;;;;;25.30;92.60;;;;;;5011748;28;20285;-71
2023/09/11 11:28:07;;;;;;;;;;;25.40;92.80;;;;;;5009078;28;19920;-72
2023/09/11 11:30:34;;;;;;;;;;;25.50;92.70;;;;;;5011357;28;20289;-72
2023/09/11 11:33:00;;;;;;;;;;;25.60;92.70;;;;;;5010327;28;20470;-72
2023/09/11 11:35:26;;;;;;;;;;;25.70;92.50;;;;;;5009531;28;20290;-72
2023/09/11 11:37:53;;;;;;;;;;;25.70;92.80;;;;;;5009900;28;19913;-72
2023/09/11 11:40:18;;;;;;;;;;;25.80;92.50;;;;;;5010953;28;19920;-72
2023/09/11 11:42:44;;;;;;;;;;;26.00;92.70;;;;;;5010346;28;20012;-72
2023/09/11 11:45:10;;;;;;;;;;;26.00;92.50;;;;;;5010737;28;19935;-72
2023/09/11 11:47:36;;;;;;;;;;;26.10;92.50;;;;;;5010481;28;19928;-72
2023/09/11 11:50:11;;;;;;;;;;;26.10;92.30;;;;;;5010923;28;19914;-72
2023/09/11 11:52:43;;;;;;;;;;;26.20;92.50;;;;;;5010186;28;19917;-71
2023/09/11 11:55:18;;;;;;;;;;;26.30;92.30;;;;;;5010692;28;19973;-72
2023/09/11 11:57:48;;;;;;;;;;;26.40;92.60;;;;;;5008847;28;20298;-71
2023/09/11 12:00:13;;;;;;;;;;;26.50;92.40;;;;;;5010448;28;20000;-71
2023/09/11 12:02:39;;;;;;;;;;;26.50;92.30;;;;;;5009471;28;19992;-72
2023/09/11 12:05:10;;;;;;;;;;;26.60;92.40;;;;;;5009840;28;20374;-72
2023/09/11 12:07:36;;;;;;;;;;;26.60;92.00;;;;;;5009984;28;19974;-71
2023/09/11 12:10:02;;;;;;;;;;;26.70;91.90;;;;;;5010577;28;19913;-71
2023/09/11 12:12:27;;;;;;;;;;;26.80;92.30;;;;;;5010203;28;19913;-71
2023/09/11 12:14:54;;;;;;;;;;;26.90;92.00;;;;;;5009896;28;19913;-72
2023/09/11 12:17:19;;;;;;;;;;;26.90;92.40;;;;;;5009272;28;19917;-72
2023/09/11 12:19:45;;;;;;;;;;;27.00;92.40;;;;;;5007692;28;19921;-71
2023/09/11 12:22:10;;;;;;;;;;;27.00;91.80;;;;;;5009809;28;20386;-71
2023/09/11 12:24:36;;;;;;;;;;;27.10;92.00;;;;;;5010132;28;19914;-71
2023/09/11 12:27:02;;;;;;;;;;;27.10;92.20;;;;;;5002314;28;20051;-71
2023/09/11 12:29:32;;;;;;;;;;;27.20;92.20;;;;;;5010005;28;20309;-71
2023/09/11 12:31:58;;;;;;;;;;;27.20;92.20;;;;;;5009765;28;19992;-71
2023/09/11 12:34:23;;;;;;;;;;;27.20;92.20;;;;;;5010157;28;20677;-71
2023/09/11 12:36:49;;;;;;;;;;;27.30;92.40;;;;;;5008215;28;19988;-71
2023/09/11 12:39:14;;;;;;;;;;;27.30;92.30;;;;;;5004439;28;19956;-71
2023/09/11 12:41:40;;;;;;;;;;;27.40;92.10;;;;;;5009547;28;19913;-72
2023/09/11 12:44:06;;;;;;;;;;;27.40;92.30;;;;;;5008231;28;19995;-72
2023/09/11 12:46:33;;;;;;;;;;;27.50;92.20;;;;;;5010094;28;19921;-72
2023/09/11 12:48:59;;;;;;;;;;;27.60;92.40;;;;;;5009574;28;19924;-71
2023/09/11 12:51:24;;;;;;;;;;;27.60;92.30;;;;;;5009528;28;20282;-71
2023/09/11 12:53:50;;;;;;;;;;;27.60;91.90;;;;;;5008086;28;19989;-71
2023/09/11 12:56:19;;;;;;;;;;;27.70;92.40;;;;;;5009873;28;19914;-71
2023/09/11 12:58:45;;;;;;;;;;;27.70;92.20;;;;;;5009098;28;19920;-71
2023/09/11 13:01:11;;;;;;;;;;;27.80;91.80;;;;;;5009342;28;19917;-71
2023/09/11 13:03:42;;;;;;;;;;;27.80;92.30;;;;;;5009306;28;19909;-72
2023/09/11 13:06:08;;;;;;;;;;;27.90;92.00;;;;;;5009018;28;20370;-71
2023/09/11 13:08:35;;;;;;;;;;;27.90;91.80;;;;;;5005509;28;19916;-71
2023/09/11 13:11:01;;;;;;;;;;;27.90;92.00;;;;;;5009089;28;19913;-72
2023/09/11 13:13:26;;;;;;;;;;;28.00;92.10;;;;;;5009248;28;19922;-72
2023/09/11 13:15:52;;;;;;;;;;;28.10;92.10;;;;;;5008769;28;20512;-72
2023/09/11 13:18:20;;;;;;;;;;;28.10;92.00;;;;;;5009495;28;19920;-72
2023/09/11 13:20:45;;;;;;;;;;;28.10;91.40;;;;;;5008813;28;19913;-72
2023/09/11 13:23:11;;;;;;;;;;;28.10;91.70;;;;;;5009240;28;20370;-72
2023/09/11 13:25:37;;;;;;;;;;;28.20;92.00;;;;;;5007864;28;20267;-72
2023/09/11 13:28:03;;;;;;;;;;;28.20;92.10;;;;;;5008958;28;19917;-72
2023/09/11 13:30:28;;;;;;;;;;;28.20;91.60;;;;;;5009330;28;19910;-72
2023/09/11 13:32:54;;;;;;;;;;;28.20;91.80;;;;;;5008290;28;19924;-72
2023/09/11 13:35:20;;;;;;;;;;;28.30;92.10;;;;;;5009035;28;20282;-72
2023/09/11 13:37:45;;;;;;;;;;;28.40;91.50;;;;;;5008087;28;20646;-72
2023/09/11 13:40:11;;;;;;;;;;;28.40;91.80;;;;;;5008830;28;19922;-72
2023/09/11 13:42:37;;;;;;;;;;;28.40;92.10;;;;;;5008525;28;19910;-72
2023/09/11 13:45:03;;;;;;;;;;;28.40;91.60;;;;;;5007431;28;20453;-72
2023/09/11 13:47:28;;;;;;;;;;;28.50;91.90;;;;;;5008779;28;19920;-72
2023/09/11 13:49:54;;;;;;;;;;;28.50;91.90;;;;;;5008656;28;19955;-72
2023/09/11 13:52:19;;;;;;;;;;;28.50;92.00;;;;;;5008310;28;20281;-72
2023/09/11 13:54:46;;;;;;;;;;;28.50;91.30;;;;;;5008135;28;19920;-72
2023/09/11 13:57:12;;;;;;;;;;;28.60;91.90;;;;;;5008651;28;19924;-72
2023/09/11 13:59:38;;;;;;;;;;;28.60;91.70;;;;;;5008345;28;19910;-72
2023/09/11 14:02:03;;;;;;;;;;;28.60;91.90;;;;;;5008411;28;20004;-72
2023/09/11 14:04:29;;;;;;;;;;;28.60;91.90;;;;;;5008746;28;19917;-72
2023/09/11 14:06:54;;;;;;;;;;;28.60;91.80;;;;;;5003406;28;20001;-72
2023/09/11 14:09:20;;;;;;;;;;;28.60;91.50;;;;;;5002589;28;19920;-72
2023/09/11 14:11:45;;;;;;;;;;;28.70;91.00;;;;;;5006396;28;19949;-72